Clarkton, North Carolina
Current Conditions -  °F | °C
As of 11:15 AM on Thursday 18 Dec 2014 (Local Time) from KEYF Reporting Station
Clear Clear  
Wind Chill: 50°   Ceiling: Unl
Heat Index: 50°   Visibility: 10mi
Dew Point: 29°   Wind: 0mph
Humidity: 46%   Direction: NA
Pressure: 30.18"   Gusts: NA
Location:  34.49°N, 78.66°W
Report Text: KEYF 181615Z AUTO 00000KT 10SM CLR 10/M01 A3018 RMK AO2 T00981015
Loading
Personal Weather Stations






























Interactive Weather Map New forecast layout! Learn more

10-Day Weather Forecast

Advertisements
Track Severe Weather on mobile